LGAV Airport Information

Runway Information
Runway 03R Length 13123 ft width 148 ft
Elevation 271 ft Threshold 984 ft Heading 37
Runway 21L Length 13123 ft Width 148 ft
Elevation 303 ft Threshold 984 ft Heading 217
Runway 03L Length 12467 ft width 148 ft
Elevation 255 ft Threshold 984 ft Heading 37
Runway 21R Length 12467 ft Width 148 ft
Elevation 282 ft Threshold 984 ft Heading 217
Airport Frequencies
Type APP Name ATHINAI AP Frequency 126.575 MHZ
Type ARR Name ATHINAI AR Frequency 132.975 MHZ
Type ATIS Name ATIS Frequency 136.125 MHZ
Type CLD Name CLNC DEL Frequency 118.675 MHZ
Type DEP Name ATHINAI DE Frequency 128.95 MHZ
Type DIR Name ATHINAI DI Frequency 121.4 MHZ
Type GND Name GND Frequency 121.75 MHZ
Type INFO Name INFO Frequency 136.025 MHZ
Type PMSV Name ATHINAI VO Frequency 127.8 MHZ
Type RDO Name RDO Frequency 563.7 MHZ
Type TWR Name TWR Frequency 136.275 MHZ
Airport Navaids
Type VOR-DME Name Eleftherios Venizelos Frequency 109600 KHZ
Type VOR-DME Name Eleftherios Venizelos Frequency 117500 KHZ
Airport Weather Information & NOTAM
ADDS - METARS form results

(1118 UTC 30 June 2022)
Data provider http://aviationweather.gov/metar/data/
 
METAR text: LGAV 301050Z 04018KT 9999 FEW030 31/15 Q1012 NOSIG
Conditions at: LGAV (ATHENS/ELEF-VEN , GR) observed 1050 UTC 30 June 2022
Temperature: 31.0°C (88°F)
Dewpoint: 15.0°C (59°F) [RH = 38%]
Pressure (altimeter): 29.88 inches Hg (1012.0 mb)
Winds: from the NE (40 degrees) at 21 MPH (18 knots; 9.3 m/s)
Visibility: 6 or more miles (10+ km)
Ceiling: at least 12,000 feet AGL
Clouds: few clouds at 3000 feet AGL
Weather: no significant weather observed at this time

METAR text: LGAV 301020Z 05020KT 9999 FEW030 32/13 Q1012 NOSIG
Conditions at: LGAV (ATHENS/ELEF-VEN , GR) observed 1020 UTC 30 June 2022
Temperature: 32.0°C (90°F)
Dewpoint: 13.0°C (55°F) [RH = 32%]
Pressure (altimeter): 29.88 inches Hg (1012.0 mb)
Winds: from the NE (50 degrees) at 23 MPH (20 knots; 10.3 m/s)
Visibility: 6 or more miles (10+ km)
Ceiling: at least 12,000 feet AGL
Clouds: few clouds at 3000 feet AGL
Weather: no significant weather observed at this time

Forecast for: LGAV (ATHENS/ELEF-VEN , GR)
Text: TAF LGAV 301100Z 3012/0112 36015KT 9999 FEW020
Forecast period: 1200 UTC 30 June 2022 to 1200 UTC 01 July 2022
Forecast type: FROM: standard forecast or significant change
Winds: from the N (360 degrees) at 17 MPH (15 knots; 7.7 m/s)
Visibility: 6 or more miles (10+ km)
Ceiling: at least 12,000 feet AGL
Clouds: few clouds at 2000 feet AGL
Weather: no significant weather forecast for this period
Text: TEMPO 3012/3015 04015G25KT
Forecast period: 1200 to 1500 UTC 30 June 2022
Forecast type: TEMPORARY: The following changes expected for less than half the time period
Winds: from the NE (40 degrees) at 17 MPH (15 knots; 7.7 m/s)
gusting to 29 MPH (25 knots; 12.9 m/s)
Visibility: missing
Ceiling: unknown
Clouds: missing
Weather: no significant weather forecast for this period